sensor_id;sensor_type;location;lat;lon;timestamp;pressure;altitude;pressure_sealevel;temperature;humidity
47935;BME280;33704;43.592;-79.628;2023-12-20T00:00:17;100600.62;;;35.65;19.14
47935;BME280;33704;43.592;-79.628;2023-12-20T00:00:49;100601.14;;;35.68;19.13
47935;BME280;33704;43.592;-79.628;2023-12-20T00:01:22;100601.54;;;35.69;18.73
47935;BME280;33704;43.592;-79.628;2023-12-20T00:01:54;100602.15;;;35.68;18.88
47935;BME280;33704;43.592;-79.628;2023-12-20T00:02:25;100605.82;;;35.68;18.94
47935;BME280;33704;43.592;-79.628;2023-12-20T00:02:57;100605.28;;;35.67;19.16
47935;BME280;33704;43.592;-79.628;2023-12-20T00:03:29;100604.34;;;35.62;18.82
47935;BME280;33704;43.592;-79.628;2023-12-20T00:04:03;100605.12;;;35.63;18.58
47935;BME280;33704;43.592;-79.628;2023-12-20T00:04:34;100605.78;;;35.67;19.04
47935;BME280;33704;43.592;-79.628;2023-12-20T00:05:07;100608.81;;;35.71;18.91
47935;BME280;33704;43.592;-79.628;2023-12-20T00:05:39;100607.96;;;35.70;18.68
47935;BME280;33704;43.592;-79.628;2023-12-20T00:06:11;100608.21;;;35.70;19.90
47935;BME280;33704;43.592;-79.628;2023-12-20T00:06:43;100607.11;;;35.68;18.68
47935;BME280;33704;43.592;-79.628;2023-12-20T00:07:15;100606.64;;;35.72;18.45
47935;BME280;33704;43.592;-79.628;2023-12-20T00:07:47;100607.76;;;35.68;18.65
47935;BME280;33704;43.592;-79.628;2023-12-20T00:08:19;100609.98;;;35.64;18.83
47935;BME280;33704;43.592;-79.628;2023-12-20T00:08:52;100610.99;;;35.62;18.72
47935;BME280;33704;43.592;-79.628;2023-12-20T00:09:24;100614.12;;;35.66;18.93
47935;BME280;33704;43.592;-79.628;2023-12-20T00:09:56;100613.49;;;35.68;19.20
47935;BME280;33704;43.592;-79.628;2023-12-20T00:10:28;100615.17;;;35.68;19.27
47935;BME280;33704;43.592;-79.628;2023-12-20T00:11:01;100616.40;;;35.73;19.37
47935;BME280;33704;43.592;-79.628;2023-12-20T00:11:33;100616.41;;;35.69;19.19
47935;BME280;33704;43.592;-79.628;2023-12-20T00:12:05;100616.89;;;35.72;18.73
47935;BME280;33704;43.592;-79.628;2023-12-20T00:12:37;100618.64;;;35.74;18.87
47935;BME280;33704;43.592;-79.628;2023-12-20T00:13:09;100616.68;;;35.73;18.71
47935;BME280;33704;43.592;-79.628;2023-12-20T00:13:41;100620.31;;;35.71;18.82
47935;BME280;33704;43.592;-79.628;2023-12-20T00:14:13;100619.88;;;35.74;19.25
47935;BME280;33704;43.592;-79.628;2023-12-20T00:14:45;100618.65;;;35.73;18.72
47935;BME280;33704;43.592;-79.628;2023-12-20T00:15:17;100618.90;;;35.72;18.60
47935;BME280;33704;43.592;-79.628;2023-12-20T00:15:49;100619.39;;;35.71;18.42
47935;BME280;33704;43.592;-79.628;2023-12-20T00:16:21;100621.43;;;35.71;18.43
47935;BME280;33704;43.592;-79.628;2023-12-20T00:16:53;100622.86;;;35.73;18.19
47935;BME280;33704;43.592;-79.628;2023-12-20T00:17:25;100621.96;;;35.72;18.64
47935;BME280;33704;43.592;-79.628;2023-12-20T00:17:57;100623.84;;;35.72;18.60
47935;BME280;33704;43.592;-79.628;2023-12-20T00:18:29;100624.07;;;35.72;18.59
47935;BME280;33704;43.592;-79.628;2023-12-20T00:19:02;100624.01;;;35.71;18.42
47935;BME280;33704;43.592;-79.628;2023-12-20T00:19:33;100625.36;;;35.72;18.78
47935;BME280;33704;43.592;-79.628;2023-12-20T00:20:07;100623.95;;;35.71;18.73
47935;BME280;33704;43.592;-79.628;2023-12-20T00:20:40;100626.17;;;35.73;18.54
47935;BME280;33704;43.592;-79.628;2023-12-20T00:21:12;100628.19;;;35.74;18.44
47935;BME280;33704;43.592;-79.628;2023-12-20T00:21:44;100626.64;;;35.76;18.32
47935;BME280;33704;43.592;-79.628;2023-12-20T00:22:16;100629.74;;;35.76;18.29
47935;BME280;33704;43.592;-79.628;2023-12-20T00:22:48;100630.83;;;35.75;18.31
47935;BME280;33704;43.592;-79.628;2023-12-20T00:23:21;100631.10;;;35.75;18.61
47935;BME280;33704;43.592;-79.628;2023-12-20T00:23:53;100631.70;;;35.73;18.41
47935;BME280;33704;43.592;-79.628;2023-12-20T00:24:24;100633.61;;;35.73;18.36
47935;BME280;33704;43.592;-79.628;2023-12-20T00:24:56;100636.71;;;35.75;18.41
47935;BME280;33704;43.592;-79.628;2023-12-20T00:25:28;100636.92;;;35.74;18.53
47935;BME280;33704;43.592;-79.628;2023-12-20T00:26:01;100637.56;;;35.71;18.39
47935;BME280;33704;43.592;-79.628;2023-12-20T00:26:33;100641.79;;;35.71;18.54
47935;BME280;33704;43.592;-79.628;2023-12-20T00:27:05;100644.15;;;35.76;18.39
47935;BME280;33704;43.592;-79.628;2023-12-20T00:27:37;100645.67;;;35.74;18.33
47935;BME280;33704;43.592;-79.628;2023-12-20T00:28:09;100646.57;;;35.75;18.49
47935;BME280;33704;43.592;-79.628;2023-12-20T00:28:41;100643.86;;;35.72;18.28
47935;BME280;33704;43.592;-79.628;2023-12-20T00:29:13;100645.61;;;35.75;18.36
47935;BME280;33704;43.592;-79.628;2023-12-20T00:29:45;100645.29;;;35.74;18.78
47935;BME280;33704;43.592;-79.628;2023-12-20T00:30:17;100645.83;;;35.76;19.28
47935;BME280;33704;43.592;-79.628;2023-12-20T00:30:49;100648.87;;;35.77;19.43
47935;BME280;33704;43.592;-79.628;2023-12-20T00:31:21;100648.93;;;35.77;18.75
47935;BME280;33704;43.592;-79.628;2023-12-20T00:31:53;100650.78;;;35.81;18.65
47935;BME280;33704;43.592;-79.628;2023-12-20T00:32:25;100652.09;;;35.81;19.78
47935;BME280;33704;43.592;-79.628;2023-12-20T00:32:57;100653.44;;;35.83;18.89
47935;BME280;33704;43.592;-79.628;2023-12-20T00:33:29;100655.27;;;35.84;18.98
47935;BME280;33704;43.592;-79.628;2023-12-20T00:34:02;100654.92;;;35.80;19.04
47935;BME280;33704;43.592;-79.628;2023-12-20T00:34:33;100654.38;;;35.77;18.98
47935;BME280;33704;43.592;-79.628;2023-12-20T00:35:06;100654.16;;;35.81;18.88
47935;BME280;33704;43.592;-79.628;2023-12-20T00:35:38;100655.47;;;35.84;19.36
47935;BME280;33704;43.592;-79.628;2023-12-20T00:36:10;100657.59;;;35.83;19.61
47935;BME280;33704;43.592;-79.628;2023-12-20T00:36:42;100658.75;;;35.86;19.91
47935;BME280;33704;43.592;-79.628;2023-12-20T00:37:14;100660.05;;;35.88;19.57
47935;BME280;33704;43.592;-79.628;2023-12-20T00:37:46;100658.89;;;35.90;19.46
47935;BME280;33704;43.592;-79.628;2023-12-20T00:38:18;100661.07;;;35.91;19.19
47935;BME280;33704;43.592;-79.628;2023-12-20T00:38:50;100662.62;;;35.90;19.91
47935;BME280;33704;43.592;-79.628;2023-12-20T00:39:22;100662.46;;;35.88;19.52
47935;BME280;33704;43.592;-79.628;2023-12-20T00:39:54;100664.50;;;35.87;19.93
47935;BME280;33704;43.592;-79.628;2023-12-20T00:40:26;100665.75;;;35.92;19.50
47935;BME280;33704;43.592;-79.628;2023-12-20T00:40:58;100669.85;;;35.93;19.71
47935;BME280;33704;43.592;-79.628;2023-12-20T00:41:30;100666.17;;;35.92;19.38
47935;BME280;33704;43.592;-79.628;2023-12-20T00:42:02;100668.21;;;35.96;19.88
47935;BME280;33704;43.592;-79.628;2023-12-20T00:42:34;100664.66;;;35.93;19.86
47935;BME280;33704;43.592;-79.628;2023-12-20T00:43:07;100664.03;;;35.90;19.75
47935;BME280;33704;43.592;-79.628;2023-12-20T00:43:40;100665.54;;;35.91;20.34
47935;BME280;33704;43.592;-79.628;2023-12-20T00:44:11;100664.29;;;35.90;20.12
47935;BME280;33704;43.592;-79.628;2023-12-20T00:44:44;100665.96;;;35.90;20.56
47935;BME280;33704;43.592;-79.628;2023-12-20T00:45:15;100666.92;;;35.87;19.52
47935;BME280;33704;43.592;-79.628;2023-12-20T00:45:47;100667.65;;;35.87;20.70
47935;BME280;33704;43.592;-79.628;2023-12-20T00:46:19;100670.41;;;35.84;20.33
47935;BME280;33704;43.592;-79.628;2023-12-20T00:46:52;100670.32;;;35.85;20.44
47935;BME280;33704;43.592;-79.628;2023-12-20T00:47:23;100672.24;;;35.86;20.40
47935;BME280;33704;43.592;-79.628;2023-12-20T00:47:55;100672.43;;;35.87;20.35
47935;BME280;33704;43.592;-79.628;2023-12-20T00:48:27;100673.15;;;35.84;20.26
47935;BME280;33704;43.592;-79.628;2023-12-20T00:49:00;100671.91;;;35.83;21.07
47935;BME280;33704;43.592;-79.628;2023-12-20T00:49:33;100673.25;;;35.81;20.81
47935;BME280;33704;43.592;-79.628;2023-12-20T00:50:06;100674.67;;;35.81;20.56
47935;BME280;33704;43.592;-79.628;2023-12-20T00:50:38;100674.41;;;35.83;20.15
47935;BME280;33704;43.592;-79.628;2023-12-20T00:51:10;100674.39;;;35.82;20.01
47935;BME280;33704;43.592;-79.628;2023-12-20T00:51:42;100674.86;;;35.87;20.04
47935;BME280;33704;43.592;-79.628;2023-12-20T00:52:14;100676.43;;;35.91;20.29
47935;BME280;33704;43.592;-79.628;2023-12-20T00:52:47;100676.52;;;35.93;20.63
47935;BME280;33704;43.592;-79.628;2023-12-20T00:53:19;100677.71;;;35.94;21.16
47935;BME280;33704;43.592;-79.628;2023-12-20T00:53:51;100677.63;;;35.92;20.56
47935;BME280;33704;43.592;-79.628;2023-12-20T00:54:23;100680.57;;;35.94;20.27
47935;BME280;33704;43.592;-79.628;2023-12-20T00:54:55;100679.29;;;35.95;20.69
47935;BME280;33704;43.592;-79.628;2023-12-20T00:55:27;100682.43;;;35.99;21.08
47935;BME280;33704;43.592;-79.628;2023-12-20T00:56:00;100685.84;;;36.06;21.42
47935;BME280;33704;43.592;-79.628;2023-12-20T00:56:32;100687.17;;;36.11;20.48
47935;BME280;33704;43.592;-79.628;2023-12-20T00:57:05;100690.01;;;36.08;21.18
47935;BME280;33704;43.592;-79.628;2023-12-20T00:57:36;100689.16;;;36.02;21.78
47935;BME280;33704;43.592;-79.628;2023-12-20T00:58:08;100691.24;;;36.03;21.37
47935;BME280;33704;43.592;-79.628;2023-12-20T00:58:40;100692.52;;;36.05;20.89
47935;BME280;33704;43.592;-79.628;2023-12-20T00:59:13;100692.96;;;36.06;20.88
47935;BME280;33704;43.592;-79.628;2023-12-20T00:59:44;100693.45;;;36.02;20.08
47935;BME280;33704;43.592;-79.628;2023-12-20T01:00:17;100693.63;;;36.07;21.16
47935;BME280;33704;43.592;-79.628;2023-12-20T01:00:49;100694.41;;;36.02;21.12
47935;BME280;33704;43.592;-79.628;2023-12-20T01:01:22;100693.87;;;36.03;20.33
47935;BME280;33704;43.592;-79.628;2023-12-20T01:01:54;100694.22;;;36.01;20.73
47935;BME280;33704;43.592;-79.628;2023-12-20T01:02:27;100696.50;;;35.99;20.90
47935;BME280;33704;43.592;-79.628;2023-12-20T01:03:00;100696.88;;;35.98;20.82
47935;BME280;33704;43.592;-79.628;2023-12-20T01:03:32;100698.43;;;36.02;21.20
47935;BME280;33704;43.592;-79.628;2023-12-20T01:04:04;100698.28;;;36.00;20.30
47935;BME280;33704;43.592;-79.628;2023-12-20T01:04:36;100698.38;;;35.96;21.53
47935;BME280;33704;43.592;-79.628;2023-12-20T01:05:08;100698.80;;;35.97;20.44
47935;BME280;33704;43.592;-79.628;2023-12-20T01:05:41;100701.49;;;36.04;21.11
47935;BME280;33704;43.592;-79.628;2023-12-20T01:06:13;100701.84;;;36.05;21.84
47935;BME280;33704;43.592;-79.628;2023-12-20T01:06:45;100703.38;;;36.06;21.52
47935;BME280;33704;43.592;-79.628;2023-12-20T01:07:17;100703.90;;;35.96;22.37
47935;BME280;33704;43.592;-79.628;2023-12-20T01:07:54;100704.74;;;35.96;21.37
47935;BME280;33704;43.592;-79.628;2023-12-20T01:08:25;100704.23;;;35.99;22.15
47935;BME280;33704;43.592;-79.628;2023-12-20T01:08:57;100701.74;;;35.91;22.44
47935;BME280;33704;43.592;-79.628;2023-12-20T01:09:29;100704.95;;;35.84;22.39
47935;BME280;33704;43.592;-79.628;2023-12-20T01:10:01;100704.15;;;35.86;22.09
47935;BME280;33704;43.592;-79.628;2023-12-20T01:10:33;100704.86;;;35.87;21.94
47935;BME280;33704;43.592;-79.628;2023-12-20T01:11:05;100704.78;;;35.93;21.74
47935;BME280;33704;43.592;-79.628;2023-12-20T01:11:37;100705.25;;;35.95;20.72
47935;BME280;33704;43.592;-79.628;2023-12-20T01:12:09;100705.80;;;36.02;22.27
47935;BME280;33704;43.592;-79.628;2023-12-20T01:12:41;100707.21;;;36.03;22.18
47935;BME280;33704;43.592;-79.628;2023-12-20T01:13:13;100707.37;;;36.02;21.35
47935;BME280;33704;43.592;-79.628;2023-12-20T01:13:45;100706.66;;;36.06;21.85
47935;BME280;33704;43.592;-79.628;2023-12-20T01:14:17;100707.00;;;36.06;21.57
47935;BME280;33704;43.592;-79.628;2023-12-20T01:14:49;100708.71;;;36.04;22.32
47935;BME280;33704;43.592;-79.628;2023-12-20T01:15:22;100710.60;;;36.05;22.23
47935;BME280;33704;43.592;-79.628;2023-12-20T01:15:54;100711.03;;;36.07;21.71
47935;BME280;33704;43.592;-79.628;2023-12-20T01:16:26;100708.85;;;36.05;22.19
47935;BME280;33704;43.592;-79.628;2023-12-20T01:16:58;100708.32;;;36.01;22.00
47935;BME280;33704;43.592;-79.628;2023-12-20T01:17:30;100710.26;;;35.99;21.60
47935;BME280;33704;43.592;-79.628;2023-12-20T01:18:03;100709.50;;;35.99;21.70
47935;BME280;33704;43.592;-79.628;2023-12-20T01:18:35;100710.51;;;36.02;22.12
47935;BME280;33704;43.592;-79.628;2023-12-20T01:19:07;100710.17;;;36.01;21.08
47935;BME280;33704;43.592;-79.628;2023-12-20T01:19:38;100710.30;;;36.01;21.28
47935;BME280;33704;43.592;-79.628;2023-12-20T01:20:10;100707.32;;;35.96;22.24
47935;BME280;33704;43.592;-79.628;2023-12-20T01:20:42;100705.22;;;35.92;21.58
47935;BME280;33704;43.592;-79.628;2023-12-20T01:21:14;100704.19;;;35.92;22.45
47935;BME280;33704;43.592;-79.628;2023-12-20T01:21:46;100703.06;;;35.88;21.78
47935;BME280;33704;43.592;-79.628;2023-12-20T01:22:20;100701.97;;;35.84;21.56
47935;BME280;33704;43.592;-79.628;2023-12-20T01:22:52;100703.46;;;35.83;20.81
47935;BME280;33704;43.592;-79.628;2023-12-20T01:23:25;100703.69;;;35.85;21.77
47935;BME280;33704;43.592;-79.628;2023-12-20T01:23:56;100702.71;;;35.86;21.65
47935;BME280;33704;43.592;-79.628;2023-12-20T01:24:28;100702.03;;;35.88;21.16
47935;BME280;33704;43.592;-79.628;2023-12-20T01:25:01;100702.00;;;35.88;22.66
47935;BME280;33704;43.592;-79.628;2023-12-20T01:25:33;100701.63;;;35.89;20.77
47935;BME280;33704;43.592;-79.628;2023-12-20T01:26:05;100702.73;;;35.95;20.97
47935;BME280;33704;43.592;-79.628;2023-12-20T01:26:37;100704.62;;;35.99;21.19
47935;BME280;33704;43.592;-79.628;2023-12-20T01:27:08;100706.38;;;36.01;21.66
47935;BME280;33704;43.592;-79.628;2023-12-20T01:27:41;100706.91;;;35.99;20.24
47935;BME280;33704;43.592;-79.628;2023-12-20T01:28:12;100708.97;;;36.01;21.22
47935;BME280;33704;43.592;-79.628;2023-12-20T01:28:44;100707.96;;;35.96;21.07
47935;BME280;33704;43.592;-79.628;2023-12-20T01:29:16;100710.14;;;35.98;21.57
47935;BME280;33704;43.592;-79.628;2023-12-20T01:29:48;100711.19;;;36.00;21.93
47935;BME280;33704;43.592;-79.628;2023-12-20T01:30:21;100708.59;;;35.93;21.49
47935;BME280;33704;43.592;-79.628;2023-12-20T01:30:54;100709.62;;;35.86;21.38
47935;BME280;33704;43.592;-79.628;2023-12-20T01:31:26;100709.15;;;35.88;20.94
47935;BME280;33704;43.592;-79.628;2023-12-20T01:31:58;100708.74;;;35.85;20.88
47935;BME280;33704;43.592;-79.628;2023-12-20T01:32:31;100710.94;;;35.80;20.82
47935;BME280;33704;43.592;-79.628;2023-12-20T01:33:03;100710.95;;;35.79;20.98
47935;BME280;33704;43.592;-79.628;2023-12-20T01:33:35;100709.74;;;35.77;21.40
47935;BME280;33704;43.592;-79.628;2023-12-20T01:34:06;100711.40;;;35.76;21.39
47935;BME280;33704;43.592;-79.628;2023-12-20T01:34:38;100710.85;;;35.78;21.08
47935;BME280;33704;43.592;-79.628;2023-12-20T01:35:11;100710.92;;;35.84;20.37
47935;BME280;33704;43.592;-79.628;2023-12-20T01:35:43;100713.88;;;35.87;20.50
47935;BME280;33704;43.592;-79.628;2023-12-20T01:36:15;100712.15;;;35.92;20.03
47935;BME280;33704;43.592;-79.628;2023-12-20T01:36:47;100713.57;;;35.97;20.29
47935;BME280;33704;43.592;-79.628;2023-12-20T01:37:19;100714.65;;;36.02;20.16
47935;BME280;33704;43.592;-79.628;2023-12-20T01:37:51;100716.35;;;35.99;20.66
47935;BME280;33704;43.592;-79.628;2023-12-20T01:38:23;100715.11;;;35.99;20.27
47935;BME280;33704;43.592;-79.628;2023-12-20T01:38:55;100716.28;;;36.02;19.90
47935;BME280;33704;43.592;-79.628;2023-12-20T01:39:27;100716.90;;;36.03;20.25
47935;BME280;33704;43.592;-79.628;2023-12-20T01:40:00;100714.64;;;35.95;20.48
47935;BME280;33704;43.592;-79.628;2023-12-20T01:40:32;100715.87;;;35.90;20.81
47935;BME280;33704;43.592;-79.628;2023-12-20T01:41:04;100713.51;;;35.89;20.36
47935;BME280;33704;43.592;-79.628;2023-12-20T01:41:35;100716.83;;;35.89;20.43
47935;BME280;33704;43.592;-79.628;2023-12-20T01:42:07;100716.21;;;35.95;20.43
47935;BME280;33704;43.592;-79.628;2023-12-20T01:42:44;100718.46;;;35.99;20.46
47935;BME280;33704;43.592;-79.628;2023-12-20T01:43:16;100720.32;;;36.02;20.56
47935;BME280;33704;43.592;-79.628;2023-12-20T01:43:48;100719.98;;;36.02;20.50
47935;BME280;33704;43.592;-79.628;2023-12-20T01:44:20;100721.33;;;36.03;20.66
47935;BME280;33704;43.592;-79.628;2023-12-20T01:44:53;100718.57;;;36.06;20.57
47935;BME280;33704;43.592;-79.628;2023-12-20T01:45:25;100721.68;;;36.07;20.41
47935;BME280;33704;43.592;-79.628;2023-12-20T01:45:58;100721.18;;;36.08;20.37
47935;BME280;33704;43.592;-79.628;2023-12-20T01:46:31;100719.80;;;36.09;20.63
47935;BME280;33704;43.592;-79.628;2023-12-20T01:47:04;100717.22;;;36.09;20.43
47935;BME280;33704;43.592;-79.628;2023-12-20T01:47:36;100715.81;;;36.08;20.19
47935;BME280;33704;43.592;-79.628;2023-12-20T01:48:10;100715.19;;;36.11;20.27
47935;BME280;33704;43.592;-79.628;2023-12-20T01:48:42;100717.20;;;36.13;20.01
47935;BME280;33704;43.592;-79.628;2023-12-20T01:49:15;100715.49;;;36.15;20.48
47935;BME280;33704;43.592;-79.628;2023-12-20T01:49:48;100714.86;;;36.17;20.19
47935;BME280;33704;43.592;-79.628;2023-12-20T01:50:21;100713.81;;;36.16;20.17
47935;BME280;33704;43.592;-79.628;2023-12-20T01:50:54;100714.27;;;36.16;20.18
47935;BME280;33704;43.592;-79.628;2023-12-20T01:51:26;100713.71;;;36.14;20.12
47935;BME280;33704;43.592;-79.628;2023-12-20T01:51:58;100717.42;;;36.14;20.11
47935;BME280;33704;43.592;-79.628;2023-12-20T01:52:30;100718.61;;;36.14;20.05
47935;BME280;33704;43.592;-79.628;2023-12-20T01:53:06;100718.57;;;36.13;21.10
47935;BME280;33704;43.592;-79.628;2023-12-20T01:53:40;100715.59;;;36.13;20.87
47935;BME280;33704;43.592;-79.628;2023-12-20T01:54:13;100716.94;;;36.12;20.89
47935;BME280;33704;43.592;-79.628;2023-12-20T01:54:45;100717.15;;;36.13;20.53
47935;BME280;33704;43.592;-79.628;2023-12-20T01:55:17;100716.36;;;36.13;20.89
47935;BME280;33704;43.592;-79.628;2023-12-20T01:55:52;100716.38;;;36.15;20.57
47935;BME280;33704;43.592;-79.628;2023-12-20T01:56:26;100716.38;;;36.15;21.43
47935;BME280;33704;43.592;-79.628;2023-12-20T01:57:01;100718.19;;;36.17;20.48
47935;BME280;33704;43.592;-79.628;2023-12-20T01:57:33;100718.11;;;36.20;20.40
47935;BME280;33704;43.592;-79.628;2023-12-20T01:58:06;100717.19;;;36.20;20.05
47935;BME280;33704;43.592;-79.628;2023-12-20T01:58:39;100718.40;;;36.19;20.40
47935;BME280;33704;43.592;-79.628;2023-12-20T01:59:14;100714.18;;;36.21;20.09
47935;BME280;33704;43.592;-79.628;2023-12-20T01:59:46;100714.82;;;36.23;19.80
47935;BME280;33704;43.592;-79.628;2023-12-20T02:00:20;100715.80;;;36.20;20.33
47935;BME280;33704;43.592;-79.628;2023-12-20T02:00:53;100713.89;;;36.23;20.33
47935;BME280;33704;43.592;-79.628;2023-12-20T02:01:31;100712.90;;;36.20;20.03
47935;BME280;33704;43.592;-79.628;2023-12-20T02:02:05;100712.56;;;36.18;20.16
47935;BME280;33704;43.592;-79.628;2023-12-20T02:02:37;100709.01;;;36.08;20.17
47935;BME280;33704;43.592;-79.628;2023-12-20T02:03:12;100709.74;;;36.03;20.86
47935;BME280;33704;43.592;-79.628;2023-12-20T02:03:44;100709.77;;;36.02;20.44
47935;BME280;33704;43.592;-79.628;2023-12-20T02:04:17;100710.36;;;35.99;21.26
47935;BME280;33704;43.592;-79.628;2023-12-20T02:04:49;100709.83;;;35.95;21.20
47935;BME280;33704;43.592;-79.628;2023-12-20T02:05:22;100707.44;;;35.93;20.72
47935;BME280;33704;43.592;-79.628;2023-12-20T02:05:54;100710.31;;;35.91;20.86
47935;BME280;33704;43.592;-79.628;2023-12-20T02:06:30;100709.87;;;35.92;20.99
47935;BME280;33704;43.592;-79.628;2023-12-20T02:07:03;100711.34;;;35.91;20.88
47935;BME280;33704;43.592;-79.628;2023-12-20T02:07:35;100709.66;;;35.93;20.55
47935;BME280;33704;43.592;-79.628;2023-12-20T02:08:07;100709.93;;;35.90;20.73
47935;BME280;33704;43.592;-79.628;2023-12-20T02:08:39;100710.37;;;35.90;20.67
47935;BME280;33704;43.592;-79.628;2023-12-20T02:09:12;100709.20;;;35.88;20.58
47935;BME280;33704;43.592;-79.628;2023-12-20T02:09:44;100710.61;;;35.87;20.58
47935;BME280;33704;43.592;-79.628;2023-12-20T02:10:16;100710.26;;;35.89;19.99
47935;BME280;33704;43.592;-79.628;2023-12-20T02:10:49;100711.00;;;35.92;20.45
47935;BME280;33704;43.592;-79.628;2023-12-20T02:11:22;100711.34;;;35.93;20.47
47935;BME280;33704;43.592;-79.628;2023-12-20T02:11:54;100709.91;;;35.92;20.55
47935;BME280;33704;43.592;-79.628;2023-12-20T02:12:26;100709.90;;;35.92;20.49
47935;BME280;33704;43.592;-79.628;2023-12-20T02:12:58;100709.68;;;35.92;20.44
47935;BME280;33704;43.592;-79.628;2023-12-20T02:13:31;100710.65;;;35.94;19.97
47935;BME280;33704;43.592;-79.628;2023-12-20T02:14:03;100710.22;;;35.99;20.37
47935;BME280;33704;43.592;-79.628;2023-12-20T02:14:35;100711.86;;;36.02;19.90
47935;BME280;33704;43.592;-79.628;2023-12-20T02:15:08;100710.74;;;36.01;20.12
47935;BME280;33704;43.592;-79.628;2023-12-20T02:15:40;100710.21;;;35.97;20.93
47935;BME280;33704;43.592;-79.628;2023-12-20T02:16:12;100711.42;;;35.99;20.61
47935;BME280;33704;43.592;-79.628;2023-12-20T02:16:44;100708.47;;;36.05;19.98
47935;BME280;33704;43.592;-79.628;2023-12-20T02:17:16;100709.91;;;36.05;20.05
47935;BME280;33704;43.592;-79.628;2023-12-20T02:17:48;100710.89;;;36.01;19.98
47935;BME280;33704;43.592;-79.628;2023-12-20T02:18:21;100709.19;;;35.98;20.16
47935;BME280;33704;43.592;-79.628;2023-12-20T02:18:53;100709.28;;;36.05;19.65
47935;BME280;33704;43.592;-79.628;2023-12-20T02:19:24;100709.23;;;36.03;19.96
47935;BME280;33704;43.592;-79.628;2023-12-20T02:19:56;100710.33;;;36.00;19.92
47935;BME280;33704;43.592;-79.628;2023-12-20T02:20:28;100707.78;;;35.95;20.24
47935;BME280;33704;43.592;-79.628;2023-12-20T02:21:03;100707.90;;;35.97;20.85
47935;BME280;33704;43.592;-79.628;2023-12-20T02:21:35;100708.07;;;35.90;20.41
47935;BME280;33704;43.592;-79.628;2023-12-20T02:22:08;100706.99;;;35.86;20.17
47935;BME280;33704;43.592;-79.628;2023-12-20T02:22:41;100709.46;;;35.88;20.06
47935;BME280;33704;43.592;-79.628;2023-12-20T02:23:12;100706.37;;;35.86;20.06
47935;BME280;33704;43.592;-79.628;2023-12-20T02:23:44;100707.26;;;35.85;20.28
47935;BME280;33704;43.592;-79.628;2023-12-20T02:24:16;100708.17;;;35.83;20.32
47935;BME280;33704;43.592;-79.628;2023-12-20T02:24:48;100709.47;;;35.84;19.90
47935;BME280;33704;43.592;-79.628;2023-12-20T02:25:20;100708.66;;;35.85;19.95
47935;BME280;33704;43.592;-79.628;2023-12-20T02:25:52;100706.50;;;35.85;19.58
47935;BME280;33704;43.592;-79.628;2023-12-20T02:26:24;100706.58;;;35.86;19.94
47935;BME280;33704;43.592;-79.628;2023-12-20T02:26:56;100707.62;;;35.87;19.91
47935;BME280;33704;43.592;-79.628;2023-12-20T02:27:28;100707.27;;;35.84;20.03
47935;BME280;33704;43.592;-79.628;2023-12-20T02:28:01;100707.23;;;35.86;19.94
47935;BME280;33704;43.592;-79.628;2023-12-20T02:28:34;100709.23;;;35.84;20.01
47935;BME280;33704;43.592;-79.628;2023-12-20T02:29:06;100705.19;;;35.86;19.59
47935;BME280;33704;43.592;-79.628;2023-12-20T02:29:38;100704.86;;;35.85;19.79
47935;BME280;33704;43.592;-79.628;2023-12-20T02:30:16;100705.45;;;35.84;20.66
47935;BME280;33704;43.592;-79.628;2023-12-20T02:30:48;100707.82;;;35.83;20.46
47935;BME280;33704;43.592;-79.628;2023-12-20T02:31:21;100708.16;;;35.85;20.57
47935;BME280;33704;43.592;-79.628;2023-12-20T02:31:53;100708.71;;;35.83;20.03
47935;BME280;33704;43.592;-79.628;2023-12-20T02:32:25;100705.12;;;35.89;19.93
47935;BME280;33704;43.592;-79.628;2023-12-20T02:32:58;100707.05;;;35.87;19.98
47935;BME280;33704;43.592;-79.628;2023-12-20T02:33:31;100708.27;;;35.88;19.78
47935;BME280;33704;43.592;-79.628;2023-12-20T02:34:04;100706.32;;;35.88;19.49
47935;BME280;33704;43.592;-79.628;2023-12-20T02:34:36;100707.62;;;35.90;19.59
47935;BME280;33704;43.592;-79.628;2023-12-20T02:35:08;100707.61;;;35.90;20.29
47935;BME280;33704;43.592;-79.628;2023-12-20T02:35:40;100708.81;;;35.89;19.98
47935;BME280;33704;43.592;-79.628;2023-12-20T02:36:12;100708.29;;;35.87;20.04
47935;BME280;33704;43.592;-79.628;2023-12-20T02:36:44;100708.83;;;35.86;19.78
47935;BME280;33704;43.592;-79.628;2023-12-20T02:37:16;100708.78;;;35.84;19.87
47935;BME280;33704;43.592;-79.628;2023-12-20T02:37:48;100709.74;;;35.86;19.90
47935;BME280;33704;43.592;-79.628;2023-12-20T02:38:20;100711.67;;;35.87;19.86
47935;BME280;33704;43.592;-79.628;2023-12-20T02:38:52;100707.29;;;35.86;19.63
47935;BME280;33704;43.592;-79.628;2023-12-20T02:39:24;100708.75;;;35.86;19.88
47935;BME280;33704;43.592;-79.628;2023-12-20T02:39:56;100704.97;;;35.88;19.74
47935;BME280;33704;43.592;-79.628;2023-12-20T02:40:27;100704.20;;;35.83;19.70
47935;BME280;33704;43.592;-79.628;2023-12-20T02:41:01;100706.20;;;35.84;19.58
47935;BME280;33704;43.592;-79.628;2023-12-20T02:41:33;100704.38;;;35.83;19.69
47935;BME280;33704;43.592;-79.628;2023-12-20T02:42:05;100700.65;;;35.84;19.30
47935;BME280;33704;43.592;-79.628;2023-12-20T02:42:37;100703.97;;;35.83;19.67
47935;BME280;33704;43.592;-79.628;2023-12-20T02:43:08;100705.42;;;35.83;20.08
47935;BME280;33704;43.592;-79.628;2023-12-20T02:43:41;100709.11;;;35.79;19.89
47935;BME280;33704;43.592;-79.628;2023-12-20T02:44:13;100708.79;;;35.79;20.09
47935;BME280;33704;43.592;-79.628;2023-12-20T02:44:45;100707.02;;;35.82;20.24